sensor_id;sensor_type;location;lat;lon;timestamp;pressure;altitude;pressure_sealevel;temperature;humidity
70954;BME280;58618;47.490;8.736;2023-11-19T00:01:38;96777.72;;;6.99;100.00
70954;BME280;58618;47.490;8.736;2023-11-19T00:04:05;96780.09;;;7.06;100.00
70954;BME280;58618;47.490;8.736;2023-11-19T00:06:32;96791.16;;;7.11;100.00
70954;BME280;58618;47.490;8.736;2023-11-19T00:08:59;96775.78;;;7.11;100.00
70954;BME280;58618;47.490;8.736;2023-11-19T00:11:27;96778.88;;;7.13;100.00
70954;BME280;58618;47.490;8.736;2023-11-19T00:13:54;96775.19;;;7.04;100.00
70954;BME280;58618;47.490;8.736;2023-11-19T00:16:22;96774.41;;;7.04;100.00
70954;BME280;58618;47.490;8.736;2023-11-19T00:18:50;96747.25;;;7.03;100.00
70954;BME280;58618;47.490;8.736;2023-11-19T00:21:17;96742.88;;;7.03;100.00
70954;BME280;58618;47.490;8.736;2023-11-19T00:23:44;96745.50;;;7.08;100.00
70954;BME280;58618;47.490;8.736;2023-11-19T00:26:11;96731.69;;;7.14;100.00
70954;BME280;58618;47.490;8.736;2023-11-19T00:28:40;96732.19;;;7.11;100.00
70954;BME280;58618;47.490;8.736;2023-11-19T00:31:07;96730.97;;;7.19;100.00
70954;BME280;58618;47.490;8.736;2023-11-19T00:33:36;96727.00;;;7.06;100.00
70954;BME280;58618;47.490;8.736;2023-11-19T00:36:04;96713.66;;;7.04;100.00
70954;BME280;58618;47.490;8.736;2023-11-19T00:38:31;96686.28;;;6.83;100.00
70954;BME280;58618;47.490;8.736;2023-11-19T00:40:58;96710.88;;;7.11;100.00
70954;BME280;58618;47.490;8.736;2023-11-19T00:43:26;96709.38;;;7.15;100.00
70954;BME280;58618;47.490;8.736;2023-11-19T00:45:53;96704.03;;;7.21;100.00
70954;BME280;58618;47.490;8.736;2023-11-19T00:48:20;96700.69;;;7.21;100.00
70954;BME280;58618;47.490;8.736;2023-11-19T00:50:49;96695.34;;;7.22;100.00
70954;BME280;58618;47.490;8.736;2023-11-19T00:53:16;96682.00;;;7.26;100.00
70954;BME280;58618;47.490;8.736;2023-11-19T00:55:43;96660.50;;;7.32;100.00
70954;BME280;58618;47.490;8.736;2023-11-19T00:58:11;96660.56;;;7.42;100.00
70954;BME280;58618;47.490;8.736;2023-11-19T01:00:38;96666.22;;;7.44;100.00
70954;BME280;58618;47.490;8.736;2023-11-19T01:03:05;96681.16;;;7.57;100.00
70954;BME280;58618;47.490;8.736;2023-11-19T01:05:33;96698.94;;;7.63;100.00
70954;BME280;58618;47.490;8.736;2023-11-19T01:08:02;96691.78;;;7.71;100.00
70954;BME280;58618;47.490;8.736;2023-11-19T01:10:30;96659.66;;;7.63;100.00
70954;BME280;58618;47.490;8.736;2023-11-19T01:12:58;96659.44;;;7.75;100.00
70954;BME280;58618;47.490;8.736;2023-11-19T01:15:25;96662.31;;;7.83;100.00
70954;BME280;58618;47.490;8.736;2023-11-19T01:17:52;96680.28;;;7.83;100.00
70954;BME280;58618;47.490;8.736;2023-11-19T01:20:19;96679.28;;;7.89;100.00
70954;BME280;58618;47.490;8.736;2023-11-19T01:22:47;96673.41;;;7.94;100.00
70954;BME280;58618;47.490;8.736;2023-11-19T01:25:16;96660.59;;;8.04;100.00
70954;BME280;58618;47.490;8.736;2023-11-19T01:27:44;96663.94;;;8.10;100.00
70954;BME280;58618;47.490;8.736;2023-11-19T01:30:12;96648.53;;;8.10;100.00
70954;BME280;58618;47.490;8.736;2023-11-19T01:32:39;96661.41;;;8.15;100.00
70954;BME280;58618;47.490;8.736;2023-11-19T01:35:07;96662.94;;;8.16;100.00
70954;BME280;58618;47.490;8.736;2023-11-19T01:37:35;96669.16;;;8.25;100.00
70954;BME280;58618;47.490;8.736;2023-11-19T01:40:02;96641.34;;;8.12;100.00
70954;BME280;58618;47.490;8.736;2023-11-19T01:42:37;96677.91;;;8.29;100.00
70954;BME280;58618;47.490;8.736;2023-11-19T01:45:05;96658.59;;;8.26;100.00
70954;BME280;58618;47.490;8.736;2023-11-19T01:47:35;96664.06;;;8.30;100.00
70954;BME280;58618;47.490;8.736;2023-11-19T01:50:06;96664.56;;;8.37;100.00
70954;BME280;58618;47.490;8.736;2023-11-19T01:52:35;96658.34;;;8.23;100.00
70954;BME280;58618;47.490;8.736;2023-11-19T01:55:04;96659.34;;;8.17;100.00
70954;BME280;58618;47.490;8.736;2023-11-19T01:57:31;96647.53;;;8.21;100.00
70954;BME280;58618;47.490;8.736;2023-11-19T02:00:00;96643.41;;;8.10;100.00
70954;BME280;58618;47.490;8.736;2023-11-19T02:02:28;96640.56;;;8.01;100.00
70954;BME280;58618;47.490;8.736;2023-11-19T02:04:56;96631.53;;;7.98;100.00
70954;BME280;58618;47.490;8.736;2023-11-19T02:07:24;96603.25;;;7.83;100.00
70954;BME280;58618;47.490;8.736;2023-11-19T02:09:51;96640.09;;;8.19;100.00
70954;BME280;58618;47.490;8.736;2023-11-19T02:12:18;96638.38;;;8.30;100.00
70954;BME280;58618;47.490;8.736;2023-11-19T02:14:46;96617.81;;;8.30;100.00
70954;BME280;58618;47.490;8.736;2023-11-19T02:17:27;96612.16;;;8.33;100.00
70954;BME280;58618;47.490;8.736;2023-11-19T02:19:54;96621.91;;;8.36;100.00
70954;BME280;58618;47.490;8.736;2023-11-19T02:22:22;96619.31;;;8.31;100.00
70954;BME280;58618;47.490;8.736;2023-11-19T02:24:51;96621.84;;;8.16;100.00
70954;BME280;58618;47.490;8.736;2023-11-19T02:27:28;96625.16;;;8.11;100.00
70954;BME280;58618;47.490;8.736;2023-11-19T02:29:59;96633.69;;;8.27;100.00
70954;BME280;58618;47.490;8.736;2023-11-19T02:32:27;96625.97;;;8.22;100.00
70954;BME280;58618;47.490;8.736;2023-11-19T02:34:56;96614.13;;;8.11;100.00
70954;BME280;58618;47.490;8.736;2023-11-19T02:37:23;96620.84;;;8.22;100.00
70954;BME280;58618;47.490;8.736;2023-11-19T02:39:51;96616.19;;;8.14;100.00
70954;BME280;58618;47.490;8.736;2023-11-19T02:42:19;96623.38;;;8.17;100.00
70954;BME280;58618;47.490;8.736;2023-11-19T02:44:46;96611.06;;;8.09;100.00
70954;BME280;58618;47.490;8.736;2023-11-19T02:47:15;96633.13;;;8.15;100.00
70954;BME280;58618;47.490;8.736;2023-11-19T02:49:43;96626.97;;;8.11;100.00
70954;BME280;58618;47.490;8.736;2023-11-19T02:52:10;96646.00;;;8.20;100.00
70954;BME280;58618;47.490;8.736;2023-11-19T02:54:37;96661.16;;;8.21;100.00
70954;BME280;58618;47.490;8.736;2023-11-19T02:57:05;96658.59;;;8.16;100.00
70954;BME280;58618;47.490;8.736;2023-11-19T02:59:35;96651.41;;;8.18;100.00
70954;BME280;58618;47.490;8.736;2023-11-19T03:02:07;96644.72;;;8.12;100.00
70954;BME280;58618;47.490;8.736;2023-11-19T03:04:38;96629.53;;;8.05;100.00
70954;BME280;58618;47.490;8.736;2023-11-19T03:07:06;96613.59;;;8.03;100.00
70954;BME280;58618;47.490;8.736;2023-11-19T03:09:34;96613.59;;;8.03;100.00
70954;BME280;58618;47.490;8.736;2023-11-19T03:12:02;96622.34;;;8.02;100.00
70954;BME280;58618;47.490;8.736;2023-11-19T03:14:33;96590.97;;;7.95;100.00
70954;BME280;58618;47.490;8.736;2023-11-19T03:17:00;96612.56;;;8.10;100.00
70954;BME280;58618;47.490;8.736;2023-11-19T03:19:28;96608.72;;;8.07;100.00
70954;BME280;58618;47.490;8.736;2023-11-19T03:22:05;96609.78;;;8.16;100.00
70954;BME280;58618;47.490;8.736;2023-11-19T03:24:33;96603.34;;;8.14;100.00
70954;BME280;58618;47.490;8.736;2023-11-19T03:27:00;96609.00;;;8.21;100.00
70954;BME280;58618;47.490;8.736;2023-11-19T03:29:27;96608.50;;;8.19;100.00
70954;BME280;58618;47.490;8.736;2023-11-19T03:31:55;96592.56;;;8.17;100.00
70954;BME280;58618;47.490;8.736;2023-11-19T03:34:22;96621.84;;;8.21;100.00
70954;BME280;58618;47.490;8.736;2023-11-19T03:36:49;96614.69;;;8.28;100.00
70954;BME280;58618;47.490;8.736;2023-11-19T03:39:17;96611.91;;;8.39;100.00
70954;BME280;58618;47.490;8.736;2023-11-19T03:41:45;96613.47;;;8.40;100.00
70954;BME280;58618;47.490;8.736;2023-11-19T03:44:13;96611.13;;;8.39;100.00
70954;BME280;58618;47.490;8.736;2023-11-19T03:46:40;96608.56;;;8.34;100.00
70954;BME280;58618;47.490;8.736;2023-11-19T03:49:07;96610.84;;;8.35;100.00
70954;BME280;58618;47.490;8.736;2023-11-19T03:51:34;96614.72;;;8.38;100.00
70954;BME280;58618;47.490;8.736;2023-11-19T03:54:01;96613.47;;;8.40;100.00
70954;BME280;58618;47.490;8.736;2023-11-19T03:56:30;96619.88;;;8.38;100.00
70954;BME280;58618;47.490;8.736;2023-11-19T03:58:58;96626.31;;;8.45;100.00
70954;BME280;58618;47.490;8.736;2023-11-19T04:01:25;96626.03;;;8.42;100.00
70954;BME280;58618;47.490;8.736;2023-11-19T04:03:53;96624.47;;;8.41;100.00
70954;BME280;58618;47.490;8.736;2023-11-19T04:06:21;96638.41;;;8.45;100.00
70954;BME280;58618;47.490;8.736;2023-11-19T04:08:48;96638.41;;;8.45;100.00
70954;BME280;58618;47.490;8.736;2023-11-19T04:11:16;96639.94;;;8.51;100.00
70954;BME280;58618;47.490;8.736;2023-11-19T04:13:44;96636.06;;;8.48;100.00
70954;BME280;58618;47.490;8.736;2023-11-19T04:16:12;96635.81;;;8.45;100.00
70954;BME280;58618;47.490;8.736;2023-11-19T04:18:40;96621.44;;;8.49;100.00
70954;BME280;58618;47.490;8.736;2023-11-19T04:21:08;96628.59;;;8.47;100.00
70954;BME280;58618;47.490;8.736;2023-11-19T04:23:35;96637.38;;;8.56;100.00
70954;BME280;58618;47.490;8.736;2023-11-19T04:26:02;96650.22;;;8.51;100.00
70954;BME280;58618;47.490;8.736;2023-11-19T04:28:30;96651.25;;;8.55;100.00
70954;BME280;58618;47.490;8.736;2023-11-19T04:30:58;96651.50;;;8.64;100.00
70954;BME280;58618;47.490;8.736;2023-11-19T04:33:25;96628.63;;;8.57;100.00
70954;BME280;58618;47.490;8.736;2023-11-19T04:35:53;96638.16;;;8.67;100.00
70954;BME280;58618;47.490;8.736;2023-11-19T04:38:20;96630.69;;;8.65;100.00
70954;BME280;58618;47.490;8.736;2023-11-19T04:40:47;96635.31;;;8.68;100.00
70954;BME280;58618;47.490;8.736;2023-11-19T04:43:14;96643.03;;;8.63;100.00
70954;BME280;58618;47.490;8.736;2023-11-19T04:45:41;96624.53;;;8.61;100.00
70954;BME280;58618;47.490;8.736;2023-11-19T04:48:10;96632.50;;;8.70;100.00
70954;BME280;58618;47.490;8.736;2023-11-19T04:50:38;96646.13;;;8.70;100.00
70954;BME280;58618;47.490;8.736;2023-11-19T04:53:05;96642.00;;;8.69;100.00
70954;BME280;58618;47.490;8.736;2023-11-19T04:55:32;96638.41;;;8.75;100.00
70954;BME280;58618;47.490;8.736;2023-11-19T04:57:59;96638.91;;;8.67;100.00
70954;BME280;58618;47.490;8.736;2023-11-19T05:00:27;96653.59;;;8.77;100.00
70954;BME280;58618;47.490;8.736;2023-11-19T05:02:54;96656.94;;;8.77;100.00
70954;BME280;58618;47.490;8.736;2023-11-19T05:05:23;96626.59;;;8.69;100.00
70954;BME280;58618;47.490;8.736;2023-11-19T05:07:50;96637.88;;;8.83;100.00
70954;BME280;58618;47.490;8.736;2023-11-19T05:10:17;96644.09;;;8.87;100.00
70954;BME280;58618;47.490;8.736;2023-11-19T05:12:44;96642.53;;;8.92;100.00
70954;BME280;58618;47.490;8.736;2023-11-19T05:15:12;96642.00;;;8.95;100.00
70954;BME280;58618;47.490;8.736;2023-11-19T05:17:40;96636.38;;;9.03;100.00
70954;BME280;58618;47.490;8.736;2023-11-19T05:20:08;96640.97;;;9.06;100.00
70954;BME280;58618;47.490;8.736;2023-11-19T05:22:40;96651.25;;;9.06;100.00
70954;BME280;58618;47.490;8.736;2023-11-19T05:25:08;96650.25;;;9.12;100.00
70954;BME280;58618;47.490;8.736;2023-11-19T05:27:36;96646.38;;;9.14;100.00
70954;BME280;58618;47.490;8.736;2023-11-19T05:30:05;96643.53;;;9.11;100.00
70954;BME280;58618;47.490;8.736;2023-11-19T05:32:33;96638.69;;;9.09;100.00
70954;BME280;58618;47.490;8.736;2023-11-19T05:35:00;96641.25;;;9.19;100.00
70954;BME280;58618;47.490;8.736;2023-11-19T05:37:27;96647.66;;;9.27;100.00
70954;BME280;58618;47.490;8.736;2023-11-19T05:39:56;96646.63;;;9.23;100.00
70954;BME280;58618;47.490;8.736;2023-11-19T05:42:23;96647.16;;;9.25;100.00
70954;BME280;58618;47.490;8.736;2023-11-19T05:44:50;96640.69;;;9.32;100.00
70954;BME280;58618;47.490;8.736;2023-11-19T05:47:18;96624.47;;;9.37;100.00
70954;BME280;58618;47.490;8.736;2023-11-19T05:49:45;96621.91;;;9.32;100.00
70954;BME280;58618;47.490;8.736;2023-11-19T05:52:12;96630.38;;;9.38;100.00
70954;BME280;58618;47.490;8.736;2023-11-19T05:54:39;96625.00;;;9.29;100.00
70954;BME280;58618;47.490;8.736;2023-11-19T05:57:09;96628.03;;;9.41;100.00
70954;BME280;58618;47.490;8.736;2023-11-19T05:59:36;96629.06;;;9.50;100.00
70954;BME280;58618;47.490;8.736;2023-11-19T06:02:04;96637.56;;;9.51;100.00
70954;BME280;58618;47.490;8.736;2023-11-19T06:04:31;96619.25;;;9.52;100.00
70954;BME280;58618;47.490;8.736;2023-11-19T06:06:58;96631.88;;;9.54;100.00
70954;BME280;58618;47.490;8.736;2023-11-19T06:09:25;96624.91;;;9.59;100.00
70954;BME280;58618;47.490;8.736;2023-11-19T06:11:52;96633.16;;;9.61;100.00
70954;BME280;58618;47.490;8.736;2023-11-19T06:14:22;96640.38;;;9.59;100.00
70954;BME280;58618;47.490;8.736;2023-11-19T06:16:50;96639.31;;;9.65;100.00
70954;BME280;58618;47.490;8.736;2023-11-19T06:19:18;96631.59;;;9.70;100.00
70954;BME280;58618;47.490;8.736;2023-11-19T06:21:45;96642.91;;;9.74;100.00
70954;BME280;58618;47.490;8.736;2023-11-19T06:24:13;96642.91;;;9.74;100.00
70954;BME280;58618;47.490;8.736;2023-11-19T06:26:40;96632.34;;;9.76;100.00
70954;BME280;58618;47.490;8.736;2023-11-19T06:29:08;96646.47;;;9.79;100.00
70954;BME280;58618;47.490;8.736;2023-11-19T06:31:36;96637.72;;;9.80;100.00
70954;BME280;58618;47.490;8.736;2023-11-19T06:34:03;96654.19;;;9.84;100.00
70954;BME280;58618;47.490;8.736;2023-11-19T06:36:31;96645.44;;;9.85;100.00
70954;BME280;58618;47.490;8.736;2023-11-19T06:38:58;96648.00;;;9.90;100.00
70954;BME280;58618;47.490;8.736;2023-11-19T06:41:27;96655.72;;;9.90;100.00
70954;BME280;58618;47.490;8.736;2023-11-19T06:43:55;96649.50;;;9.96;100.00
70954;BME280;58618;47.490;8.736;2023-11-19T06:46:22;96647.97;;;9.95;100.00
70954;BME280;58618;47.490;8.736;2023-11-19T06:48:50;96653.66;;;9.92;100.00
70954;BME280;58618;47.490;8.736;2023-11-19T06:51:17;96647.47;;;9.98;100.00
70954;BME280;58618;47.490;8.736;2023-11-19T06:53:45;96632.03;;;9.93;100.00
70954;BME280;58618;47.490;8.736;2023-11-19T06:56:20;96650.22;;;10.11;100.00
70954;BME280;58618;47.490;8.736;2023-11-19T06:58:47;96646.63;;;10.07;100.00
70954;BME280;58618;47.490;8.736;2023-11-19T07:01:14;96653.56;;;10.17;100.00
70954;BME280;58618;47.490;8.736;2023-11-19T07:03:41;96654.09;;;10.19;100.00
70954;BME280;58618;47.490;8.736;2023-11-19T07:06:10;96637.84;;;10.19;100.00
70954;BME280;58618;47.490;8.736;2023-11-19T07:08:38;96642.72;;;10.25;100.00
70954;BME280;58618;47.490;8.736;2023-11-19T07:11:06;96635.50;;;10.22;100.00
70954;BME280;58618;47.490;8.736;2023-11-19T07:13:35;96649.88;;;10.33;100.00
70954;BME280;58618;47.490;8.736;2023-11-19T07:16:03;96655.56;;;10.35;100.00
70954;BME280;58618;47.490;8.736;2023-11-19T07:18:30;96646.47;;;10.43;100.00
70954;BME280;58618;47.490;8.736;2023-11-19T07:21:01;96650.06;;;10.47;100.00
70954;BME280;58618;47.490;8.736;2023-11-19T07:23:30;96627.41;;;10.39;100.00
70954;BME280;58618;47.490;8.736;2023-11-19T07:25:59;96649.25;;;10.56;100.00
70954;BME280;58618;47.490;8.736;2023-11-19T07:28:26;96650.25;;;10.61;100.00
70954;BME280;58618;47.490;8.736;2023-11-19T07:30:54;96647.63;;;10.66;100.00
70954;BME280;58618;47.490;8.736;2023-11-19T07:33:23;96640.69;;;10.61;100.00
70954;BME280;58618;47.490;8.736;2023-11-19T07:35:50;96662.03;;;10.72;100.00
70954;BME280;58618;47.490;8.736;2023-11-19T07:38:17;96672.34;;;10.72;100.00
70954;BME280;58618;47.490;8.736;2023-11-19T07:40:46;96676.44;;;10.78;100.00
70954;BME280;58618;47.490;8.736;2023-11-19T07:43:13;96662.25;;;10.75;100.00
70954;BME280;58618;47.490;8.736;2023-11-19T07:45:41;96655.31;;;10.71;100.00
70954;BME280;58618;47.490;8.736;2023-11-19T07:48:09;96628.84;;;10.60;100.00
70954;BME280;58618;47.490;8.736;2023-11-19T07:50:39;96664.53;;;10.82;100.00
70954;BME280;58618;47.490;8.736;2023-11-19T07:53:06;96674.81;;;10.87;100.00
70954;BME280;58618;47.490;8.736;2023-11-19T07:55:34;96665.53;;;10.86;100.00
70954;BME280;58618;47.490;8.736;2023-11-19T07:58:03;96669.09;;;10.90;100.00
70954;BME280;58618;47.490;8.736;2023-11-19T08:00:30;96674.28;;;10.90;100.00
70954;BME280;58618;47.490;8.736;2023-11-19T08:02:57;96672.19;;;10.92;100.00
70954;BME280;58618;47.490;8.736;2023-11-19T08:05:25;96675.34;;;10.89;100.00
70954;BME280;58618;47.490;8.736;2023-11-19T08:07:52;96682.03;;;10.85;100.00
70954;BME280;58618;47.490;8.736;2023-11-19T08:10:20;96692.03;;;10.96;100.00
70954;BME280;58618;47.490;8.736;2023-11-19T08:12:47;96668.84;;;10.91;100.00
70954;BME280;58618;47.490;8.736;2023-11-19T08:15:16;96668.59;;;10.93;100.00
70954;BME280;58618;47.490;8.736;2023-11-19T08:17:49;96673.19;;;10.96;100.00
70954;BME280;58618;47.490;8.736;2023-11-19T08:20:17;96677.75;;;11.09;100.00
70954;BME280;58618;47.490;8.736;2023-11-19T08:22:44;96683.41;;;11.11;100.00
70954;BME280;58618;47.490;8.736;2023-11-19T08:25:11;96682.41;;;11.07;100.00
70954;BME280;58618;47.490;8.736;2023-11-19T08:27:38;96687.81;;;11.06;100.00
70954;BME280;58618;47.490;8.736;2023-11-19T08:30:07;96688.59;;;11.06;100.00
70954;BME280;58618;47.490;8.736;2023-11-19T08:32:37;96690.16;;;11.07;100.00
70954;BME280;58618;47.490;8.736;2023-11-19T08:35:05;96694.78;;;11.10;100.00
70954;BME280;58618;47.490;8.736;2023-11-19T08:37:32;96700.44;;;11.12;100.00
70954;BME280;58618;47.490;8.736;2023-11-19T08:39:59;96690.84;;;11.18;100.00
70954;BME280;58618;47.490;8.736;2023-11-19T08:42:27;96686.44;;;11.18;100.00
70954;BME280;58618;47.490;8.736;2023-11-19T08:44:54;96686.22;;;11.15;100.00
70954;BME280;58618;47.490;8.736;2023-11-19T08:47:21;96683.91;;;11.13;100.00
70954;BME280;58618;47.490;8.736;2023-11-19T08:49:52;96699.00;;;11.30;100.00
70954;BME280;58618;47.490;8.736;2023-11-19T08:52:19;96688.69;;;11.30;100.00
70954;BME280;58618;47.490;8.736;2023-11-19T08:54:46;96706.72;;;11.35;100.00
70954;BME280;58618;47.490;8.736;2023-11-19T08:57:14;96701.25;;;11.41;100.00
70954;BME280;58618;47.490;8.736;2023-11-19T08:59:41;96708.47;;;11.39;100.00
70954;BME280;58618;47.490;8.736;2023-11-19T09:02:09;96710.50;;;11.42;100.00
70954;BME280;58618;47.490;8.736;2023-11-19T09:04:36;96710.06;;;11.35;100.00
70954;BME280;58618;47.490;8.736;2023-11-19T09:07:05;96706.16;;;11.38;100.00
70954;BME280;58618;47.490;8.736;2023-11-19T09:09:33;96714.63;;;11.43;100.00
70954;BME280;58618;47.490;8.736;2023-11-19T09:12:01;96706.63;;;11.45;100.00
70954;BME280;58618;47.490;8.736;2023-11-19T09:14:39;96697.59;;;11.42;100.00
70954;BME280;58618;47.490;8.736;2023-11-19T09:17:07;96701.19;;;11.47;100.00
70954;BME280;58618;47.490;8.736;2023-11-19T09:19:38;96692.47;;;11.37;100.00
70954;BME280;58618;47.490;8.736;2023-11-19T09:22:07;96714.41;;;11.40;100.00
70954;BME280;58618;47.490;8.736;2023-11-19T09:24:34;96691.44;;;11.38;100.00
70954;BME280;58618;47.490;8.736;2023-11-19T09:27:01;96699.03;;;11.54;100.00
70954;BME280;58618;47.490;8.736;2023-11-19T09:29:31;96709.94;;;11.51;100.00
70954;BME280;58618;47.490;8.736;2023-11-19T09:32:01;96706.84;;;11.49;100.00
70954;BME280;58618;47.490;8.736;2023-11-19T09:34:28;96699.38;;;11.47;100.00
70954;BME280;58618;47.490;8.736;2023-11-19T09:36:56;96719.69;;;11.54;100.00
70954;BME280;58618;47.490;8.736;2023-11-19T09:39:24;96734.69;;;11.57;100.00
70954;BME280;58618;47.490;8.736;2023-11-19T09:41:54;96722.59;;;11.52;100.00
70954;BME280;58618;47.490;8.736;2023-11-19T09:44:22;96727.44;;;11.54;100.00
70954;BME280;58618;47.490;8.736;2023-11-19T09:46:52;96721.72;;;11.62;100.00
70954;BME280;58618;47.490;8.736;2023-11-19T09:49:27;96710.38;;;11.58;100.00
70954;BME280;58618;47.490;8.736;2023-11-19T09:51:54;96710.25;;;11.73;100.00
70954;BME280;58618;47.490;8.736;2023-11-19T09:54:25;96683.44;;;11.64;100.00
70954;BME280;58618;47.490;8.736;2023-11-19T09:56:57;96685.50;;;11.67;100.00
70954;BME280;58618;47.490;8.736;2023-11-19T09:59:29;96705.81;;;12.02;100.00
70954;BME280;58618;47.490;8.736;2023-11-19T10:01:56;96703.03;;;12.17;100.00
70954;BME280;58618;47.490;8.736;2023-11-19T10:04:29;96706.25;;;12.09;100.00
70954;BME280;58618;47.490;8.736;2023-11-19T10:06:57;96700.38;;;12.22;100.00
70954;BME280;58618;47.490;8.736;2023-11-19T10:09:26;96698.09;;;12.21;100.00
70954;BME280;58618;47.490;8.736;2023-11-19T10:11:53;96694.81;;;12.15;100.00
70954;BME280;58618;47.490;8.736;2023-11-19T10:14:25;96688.63;;;12.11;100.00
70954;BME280;58618;47.490;8.736;2023-11-19T10:16:52;96692.81;;;12.07;100.00
70954;BME280;58618;47.490;8.736;2023-11-19T10:19:27;96690.03;;;12.04;100.00
70954;BME280;58618;47.490;8.736;2023-11-19T10:22:03;96687.13;;;12.10;100.00
70954;BME280;58618;47.490;8.736;2023-11-19T10:24:33;96677.44;;;11.97;100.00
70954;BME280;58618;47.490;8.736;2023-11-19T10:27:02;96668.84;;;12.02;100.00
70954;BME280;58618;47.490;8.736;2023-11-19T10:29:29;96696.19;;;12.08;100.00
70954;BME280;58618;47.490;8.736;2023-11-19T10:31:57;96697.22;;;12.07;100.00
70954;BME280;58618;47.490;8.736;2023-11-19T10:34:25;96685.56;;;12.09;100.00
70954;BME280;58618;47.490;8.736;2023-11-19T10:36:53;96680.16;;;12.06;100.00
70954;BME280;58618;47.490;8.736;2023-11-19T10:39:20;96674.19;;;12.10;100.00
70954;BME280;58618;47.490;8.736;2023-11-19T10:41:51;96674.00;;;12.02;100.00
70954;BME280;58618;47.490;8.736;2023-11-19T10:44:31;96679.94;;;12.02;100.00
70954;BME280;58618;47.490;8.736;2023-11-19T10:46:59;96672.56;;;12.14;100.00
70954;BME280;58618;47.490;8.736;2023-11-19T10:49:26;96681.69;;;12.31;100.00
70954;BME280;58618;47.490;8.736;2023-11-19T10:51:55;96676.34;;;12.22;100.00
70954;BME280;58618;47.490;8.736;2023-11-19T10:54:24;96664.81;;;12.14;100.00
70954;BME280;58618;47.490;8.736;2023-11-19T10:56:55;96687.06;;;12.15;100.00
70954;BME280;58618;47.490;8.736;2023-11-19T10:59:25;96681.25;;;12.23;100.00
70954;BME280;58618;47.490;8.736;2023-11-19T11:01:56;96676.72;;;12.15;100.00
70954;BME280;58618;47.490;8.736;2023-11-19T11:04:25;96676.19;;;12.13;100.00
70954;BME280;58618;47.490;8.736;2023-11-19T11:06:54;96673.94;;;12.07;100.00
70954;BME280;58618;47.490;8.736;2023-11-19T11:09:22;96663.84;;;12.10;100.00
70954;BME280;58618;47.490;8.736;2023-11-19T11:11:51;96663.28;;;12.13;100.00
70954;BME280;58618;47.490;8.736;2023-11-19T11:14:21;96657.69;;;12.25;100.00
70954;BME280;58618;47.490;8.736;2023-11-19T11:16:49;96652.91;;;12.37;100.00
70954;BME280;58618;47.490;8.736;2023-11-19T11:19:17;96640.91;;;12.22;100.00
70954;BME280;58618;47.490;8.736;2023-11-19T11:21:48;96632.75;;;12.15;100.00
70954;BME280;58618;47.490;8.736;2023-11-19T11:30:55;96618.63;;;12.26;100.00
70954;BME280;58618;47.490;8.736;2023-11-19T11:33:38;96621.69;;;12.28;100.00
70954;BME280;58618;47.490;8.736;2023-11-19T11:36:13;96627.28;;;12.36;100.00
70954;BME280;58618;47.490;8.736;2023-11-19T11:38:43;96613.38;;;12.50;100.00
70954;BME280;58618;47.490;8.736;2023-11-19T11:41:18;96604.69;;;12.60;100.00
70954;BME280;58618;47.490;8.736;2023-11-19T11:43:49;96607.94;;;12.84;100.00
70954;BME280;58618;47.490;8.736;2023-11-19T11:46:57;96618.13;;;12.94;100.00
70954;BME280;58618;47.490;8.736;2023-11-19T11:49:28;96621.09;;;13.01;100.00
70954;BME280;58618;47.490;8.736;2023-11-19T11:52:02;96620.22;;;12.92;100.00
70954;BME280;58618;47.490;8.736;2023-11-19T11:54:34;96607.66;;;12.86;100.00
70954;BME280;58618;47.490;8.736;2023-11-19T11:57:07;96603.41;;;12.76;100.00
70954;BME280;58618;47.490;8.736;2023-11-19T11:59:45;96609.63;;;12.75;100.00
70954;BME280;58618;47.490;8.736;2023-11-19T12:02:15;96609.47;;;12.85;100.00
70954;BME280;58618;47.490;8.736;2023-11-19T12:04:46;96616.75;;;12.83;100.00
70954;BME280;58618;47.490;8.736;2023-11-19T12:07:16;96619.44;;;12.78;100.00
70954;BME280;58618;47.490;8.736;2023-11-19T12:09:47;96623.41;;;12.89;100.00
70954;BME280;58618;47.490;8.736;2023-11-19T12:12:19;96620.59;;;12.86;100.00
70954;BME280;58618;47.490;8.736;2023-11-19T12:15:06;96624.19;;;12.71;100.00
70954;BME280;58618;47.490;8.736;2023-11-19T12:17:43;96613.28;;;12.74;100.00
70954;BME280;58618;47.490;8.736;2023-11-19T12:20:12;96618.47;;;12.74;100.00
70954;BME280;58618;47.490;8.736;2023-11-19T12:22:41;96606.84;;;12.72;100.00
70954;BME280;58618;47.490;8.736;2023-11-19T12:25:10;96615.22;;;12.82;100.00
70954;BME280;58618;47.490;8.736;2023-11-19T12:27:39;96613.66;;;12.81;100.00
70954;BME280;58618;47.490;8.736;2023-11-19T12:30:07;96622.28;;;12.77;100.00
70954;BME280;58618;47.490;8.736;2023-11-19T12:32:38;96613.31;;;12.88;100.00
70954;BME280;58618;47.490;8.736;2023-11-19T12:35:08;96619.09;;;12.98;100.00
70954;BME280;58618;47.490;8.736;2023-11-19T12:37:41;96617.09;;;12.95;100.00
70954;BME280;58618;47.490;8.736;2023-11-19T12:40:15;96614.50;;;12.95;100.00
70954;BME280;58618;47.490;8.736;2023-11-19T12:42:43;96615.22;;;12.82;100.00
70954;BME280;58618;47.490;8.736;2023-11-19T12:45:11;96607.78;;;12.62;100.00
70954;BME280;58618;47.490;8.736;2023-11-19T12:47:39;96606.56;;;12.73;100.00
70954;BME280;58618;47.490;8.736;2023-11-19T12:50:09;96594.31;;;12.79;100.00
70954;BME280;58618;47.490;8.736;2023-11-19T12:52:37;96596.59;;;12.80;100.00
70954;BME280;58618;47.490;8.736;2023-11-19T12:57:50;96589.22;;;12.74;100.00
70954;BME280;58618;47.490;8.736;2023-11-19T13:00:19;96596.13;;;12.78;100.00
70954;BME280;58618;47.490;8.736;2023-11-19T13:02:49;96584.22;;;12.77;100.00
70954;BME280;58618;47.490;8.736;2023-11-19T13:05:25;96583.97;;;12.92;100.00
70954;BME280;58618;47.490;8.736;2023-11-19T13:08:03;96586.66;;;12.87;100.00
70954;BME280;58618;47.490;8.736;2023-11-19T13:10:31;96585.13;;;12.86;100.00
70954;BME280;58618;47.490;8.736;2023-11-19T13:13:06;96587.06;;;12.94;100.00